sensor_id;sensor_type;location;lat;lon;timestamp;P1;durP1;ratioP1;P2;durP2;ratioP2
13607;SDS011;6875;50.852;5.672;2023-02-28T00:01:26;8.67;;;5.03;;
13607;SDS011;6875;50.852;5.672;2023-02-28T00:03:52;7.63;;;5.33;;
13607;SDS011;6875;50.852;5.672;2023-02-28T00:06:19;7.90;;;4.97;;
13607;SDS011;6875;50.852;5.672;2023-02-28T00:08:47;7.73;;;4.83;;
13607;SDS011;6875;50.852;5.672;2023-02-28T00:11:14;6.50;;;5.00;;
13607;SDS011;6875;50.852;5.672;2023-02-28T00:13:42;9.07;;;5.07;;
13607;SDS011;6875;50.852;5.672;2023-02-28T00:16:13;6.47;;;4.80;;
13607;SDS011;6875;50.852;5.672;2023-02-28T00:18:41;5.73;;;5.13;;
13607;SDS011;6875;50.852;5.672;2023-02-28T00:21:08;8.13;;;4.80;;
13607;SDS011;6875;50.852;5.672;2023-02-28T00:23:35;7.60;;;4.83;;
13607;SDS011;6875;50.852;5.672;2023-02-28T00:26:03;8.70;;;4.83;;
13607;SDS011;6875;50.852;5.672;2023-02-28T00:28:30;7.13;;;4.33;;
13607;SDS011;6875;50.852;5.672;2023-02-28T00:30:57;5.77;;;4.63;;
13607;SDS011;6875;50.852;5.672;2023-02-28T00:33:24;8.07;;;4.80;;
13607;SDS011;6875;50.852;5.672;2023-02-28T00:35:51;7.63;;;4.50;;
13607;SDS011;6875;50.852;5.672;2023-02-28T00:38:18;6.57;;;4.63;;
13607;SDS011;6875;50.852;5.672;2023-02-28T00:40:44;9.13;;;5.03;;
13607;SDS011;6875;50.852;5.672;2023-02-28T00:43:13;7.00;;;5.30;;
13607;SDS011;6875;50.852;5.672;2023-02-28T00:45:39;5.40;;;4.63;;
13607;SDS011;6875;50.852;5.672;2023-02-28T00:48:06;5.40;;;4.50;;
13607;SDS011;6875;50.852;5.672;2023-02-28T00:50:32;6.20;;;4.40;;
13607;SDS011;6875;50.852;5.672;2023-02-28T00:52:59;9.60;;;4.90;;
13607;SDS011;6875;50.852;5.672;2023-02-28T00:55:25;10.83;;;4.83;;
13607;SDS011;6875;50.852;5.672;2023-02-28T00:57:52;5.27;;;3.90;;
13607;SDS011;6875;50.852;5.672;2023-02-28T01:00:20;11.17;;;4.83;;
13607;SDS011;6875;50.852;5.672;2023-02-28T01:02:47;9.80;;;3.87;;
13607;SDS011;6875;50.852;5.672;2023-02-28T01:05:13;5.50;;;4.57;;
13607;SDS011;6875;50.852;5.672;2023-02-28T01:07:40;5.53;;;4.27;;
13607;SDS011;6875;50.852;5.672;2023-02-28T01:10:07;5.33;;;4.07;;
13607;SDS011;6875;50.852;5.672;2023-02-28T01:12:34;5.53;;;4.10;;
13607;SDS011;6875;50.852;5.672;2023-02-28T01:15:01;9.70;;;4.70;;
13607;SDS011;6875;50.852;5.672;2023-02-28T01:17:29;6.60;;;4.53;;
13607;SDS011;6875;50.852;5.672;2023-02-28T01:19:56;5.33;;;4.30;;
13607;SDS011;6875;50.852;5.672;2023-02-28T01:22:22;6.40;;;3.60;;
13607;SDS011;6875;50.852;5.672;2023-02-28T01:24:49;6.03;;;3.90;;
13607;SDS011;6875;50.852;5.672;2023-02-28T01:27:15;4.87;;;4.17;;
13607;SDS011;6875;50.852;5.672;2023-02-28T01:29:42;5.30;;;3.63;;
13607;SDS011;6875;50.852;5.672;2023-02-28T01:32:08;5.00;;;3.40;;
13607;SDS011;6875;50.852;5.672;2023-02-28T01:34:36;6.07;;;4.00;;
13607;SDS011;6875;50.852;5.672;2023-02-28T01:37:03;7.13;;;4.17;;
13607;SDS011;6875;50.852;5.672;2023-02-28T01:39:29;5.70;;;3.70;;
13607;SDS011;6875;50.852;5.672;2023-02-28T01:41:57;6.83;;;3.90;;
13607;SDS011;6875;50.852;5.672;2023-02-28T01:47:29;5.63;;;4.10;;
13607;SDS011;6875;50.852;5.672;2023-02-28T01:49:59;8.10;;;4.00;;
13607;SDS011;6875;50.852;5.672;2023-02-28T01:52:29;6.70;;;3.90;;
13607;SDS011;6875;50.852;5.672;2023-02-28T01:54:56;5.20;;;4.00;;
13607;SDS011;6875;50.852;5.672;2023-02-28T01:57:26;8.07;;;4.10;;
13607;SDS011;6875;50.852;5.672;2023-02-28T01:59:56;5.77;;;4.33;;
13607;SDS011;6875;50.852;5.672;2023-02-28T02:02:24;4.67;;;3.93;;
13607;SDS011;6875;50.852;5.672;2023-02-28T02:04:51;7.23;;;4.40;;
13607;SDS011;6875;50.852;5.672;2023-02-28T02:07:22;6.10;;;4.30;;
13607;SDS011;6875;50.852;5.672;2023-02-28T02:09:50;7.07;;;4.17;;
13607;SDS011;6875;50.852;5.672;2023-02-28T02:12:20;6.63;;;3.90;;
13607;SDS011;6875;50.852;5.672;2023-02-28T02:14:55;8.37;;;4.60;;
13607;SDS011;6875;50.852;5.672;2023-02-28T02:17:28;5.67;;;4.07;;
13607;SDS011;6875;50.852;5.672;2023-02-28T02:29:18;7.77;;;4.87;;
13607;SDS011;6875;50.852;5.672;2023-02-28T02:32:04;4.93;;;4.13;;
13607;SDS011;6875;50.852;5.672;2023-02-28T02:35:06;8.03;;;4.30;;
13607;SDS011;6875;50.852;5.672;2023-02-28T02:37:39;9.97;;;4.63;;
13607;SDS011;6875;50.852;5.672;2023-02-28T02:40:09;6.63;;;4.33;;
13607;SDS011;6875;50.852;5.672;2023-02-28T02:42:39;6.27;;;4.20;;
13607;SDS011;6875;50.852;5.672;2023-02-28T02:45:10;10.00;;;4.57;;
13607;SDS011;6875;50.852;5.672;2023-02-28T02:47:39;7.73;;;4.60;;
13607;SDS011;6875;50.852;5.672;2023-02-28T02:50:11;5.27;;;3.87;;
13607;SDS011;6875;50.852;5.672;2023-02-28T02:52:39;6.27;;;4.40;;
13607;SDS011;6875;50.852;5.672;2023-02-28T02:55:08;5.43;;;4.67;;
13607;SDS011;6875;50.852;5.672;2023-02-28T02:57:38;9.07;;;4.80;;
13607;SDS011;6875;50.852;5.672;2023-02-28T03:00:10;6.47;;;4.17;;
13607;SDS011;6875;50.852;5.672;2023-02-28T03:02:37;10.13;;;5.00;;
13607;SDS011;6875;50.852;5.672;2023-02-28T03:05:05;6.70;;;4.40;;
13607;SDS011;6875;50.852;5.672;2023-02-28T03:07:41;5.63;;;4.47;;
13607;SDS011;6875;50.852;5.672;2023-02-28T03:12:54;6.47;;;4.10;;
13607;SDS011;6875;50.852;5.672;2023-02-28T03:15:31;5.60;;;4.70;;
13607;SDS011;6875;50.852;5.672;2023-02-28T03:18:03;8.33;;;4.87;;
13607;SDS011;6875;50.852;5.672;2023-02-28T03:20:36;5.60;;;4.30;;
13607;SDS011;6875;50.852;5.672;2023-02-28T03:23:10;7.83;;;4.77;;
13607;SDS011;6875;50.852;5.672;2023-02-28T03:25:43;5.10;;;4.10;;
13607;SDS011;6875;50.852;5.672;2023-02-28T03:28:18;7.20;;;4.77;;
13607;SDS011;6875;50.852;5.672;2023-02-28T03:30:49;6.13;;;4.40;;
13607;SDS011;6875;50.852;5.672;2023-02-28T03:33:20;7.73;;;5.37;;
13607;SDS011;6875;50.852;5.672;2023-02-28T03:35:51;6.90;;;4.53;;
13607;SDS011;6875;50.852;5.672;2023-02-28T03:38:20;6.73;;;5.10;;
13607;SDS011;6875;50.852;5.672;2023-02-28T03:40:50;6.63;;;4.43;;
13607;SDS011;6875;50.852;5.672;2023-02-28T03:43:22;6.43;;;4.37;;
13607;SDS011;6875;50.852;5.672;2023-02-28T03:45:50;10.07;;;5.30;;
13607;SDS011;6875;50.852;5.672;2023-02-28T03:48:19;5.97;;;4.57;;
13607;SDS011;6875;50.852;5.672;2023-02-28T03:50:48;5.90;;;4.50;;
13607;SDS011;6875;50.852;5.672;2023-02-28T03:53:19;9.17;;;5.37;;
13607;SDS011;6875;50.852;5.672;2023-02-28T03:55:49;5.83;;;4.30;;
13607;SDS011;6875;50.852;5.672;2023-02-28T03:58:21;6.37;;;4.87;;
13607;SDS011;6875;50.852;5.672;2023-02-28T04:00:55;7.13;;;4.57;;
13607;SDS011;6875;50.852;5.672;2023-02-28T04:03:25;7.03;;;4.33;;
13607;SDS011;6875;50.852;5.672;2023-02-28T04:05:53;7.40;;;5.10;;
13607;SDS011;6875;50.852;5.672;2023-02-28T04:08:21;7.17;;;4.90;;
13607;SDS011;6875;50.852;5.672;2023-02-28T04:10:50;6.80;;;5.13;;
13607;SDS011;6875;50.852;5.672;2023-02-28T04:13:20;8.80;;;5.33;;
13607;SDS011;6875;50.852;5.672;2023-02-28T04:15:46;10.10;;;5.37;;
13607;SDS011;6875;50.852;5.672;2023-02-28T04:18:13;13.23;;;5.20;;
13607;SDS011;6875;50.852;5.672;2023-02-28T04:20:40;7.77;;;4.97;;
13607;SDS011;6875;50.852;5.672;2023-02-28T04:23:08;6.10;;;4.43;;
13607;SDS011;6875;50.852;5.672;2023-02-28T04:25:34;9.87;;;5.17;;
13607;SDS011;6875;50.852;5.672;2023-02-28T04:28:01;7.70;;;5.07;;
13607;SDS011;6875;50.852;5.672;2023-02-28T04:30:27;7.03;;;5.10;;
13607;SDS011;6875;50.852;5.672;2023-02-28T04:32:54;6.00;;;5.10;;
13607;SDS011;6875;50.852;5.672;2023-02-28T04:35:21;7.70;;;5.30;;
13607;SDS011;6875;50.852;5.672;2023-02-28T04:37:48;7.60;;;4.40;;
13607;SDS011;6875;50.852;5.672;2023-02-28T04:40:16;9.60;;;4.67;;
13607;SDS011;6875;50.852;5.672;2023-02-28T04:42:42;7.17;;;4.40;;
13607;SDS011;6875;50.852;5.672;2023-02-28T04:45:09;5.87;;;4.17;;
13607;SDS011;6875;50.852;5.672;2023-02-28T04:47:36;7.17;;;4.30;;
13607;SDS011;6875;50.852;5.672;2023-02-28T04:50:03;6.53;;;4.40;;
13607;SDS011;6875;50.852;5.672;2023-02-28T04:52:29;7.60;;;4.83;;
13607;SDS011;6875;50.852;5.672;2023-02-28T04:54:56;6.87;;;4.23;;
13607;SDS011;6875;50.852;5.672;2023-02-28T04:57:24;5.30;;;4.17;;
13607;SDS011;6875;50.852;5.672;2023-02-28T04:59:50;7.77;;;4.30;;
13607;SDS011;6875;50.852;5.672;2023-02-28T05:02:17;7.20;;;4.20;;
13607;SDS011;6875;50.852;5.672;2023-02-28T05:04:45;6.50;;;4.00;;
13607;SDS011;6875;50.852;5.672;2023-02-28T05:07:11;6.20;;;4.03;;
13607;SDS011;6875;50.852;5.672;2023-02-28T05:09:38;8.87;;;4.80;;
13607;SDS011;6875;50.852;5.672;2023-02-28T05:12:05;7.97;;;4.07;;
13607;SDS011;6875;50.852;5.672;2023-02-28T05:14:33;6.57;;;4.17;;
13607;SDS011;6875;50.852;5.672;2023-02-28T05:16:59;8.87;;;4.40;;
13607;SDS011;6875;50.852;5.672;2023-02-28T05:19:26;5.90;;;3.47;;
13607;SDS011;6875;50.852;5.672;2023-02-28T05:21:53;5.80;;;3.90;;
13607;SDS011;6875;50.852;5.672;2023-02-28T05:24:21;4.63;;;3.17;;
13607;SDS011;6875;50.852;5.672;2023-02-28T05:26:49;8.17;;;4.43;;
13607;SDS011;6875;50.852;5.672;2023-02-28T05:29:16;6.20;;;3.90;;
13607;SDS011;6875;50.852;5.672;2023-02-28T05:31:45;7.00;;;3.80;;
13607;SDS011;6875;50.852;5.672;2023-02-28T05:34:12;8.67;;;3.77;;
13607;SDS011;6875;50.852;5.672;2023-02-28T05:36:40;5.17;;;3.80;;
13607;SDS011;6875;50.852;5.672;2023-02-28T05:39:07;5.77;;;3.40;;
13607;SDS011;6875;50.852;5.672;2023-02-28T05:41:37;4.03;;;3.20;;
13607;SDS011;6875;50.852;5.672;2023-02-28T05:44:05;6.63;;;3.80;;
13607;SDS011;6875;50.852;5.672;2023-02-28T05:46:31;4.13;;;2.97;;
13607;SDS011;6875;50.852;5.672;2023-02-28T05:48:59;7.37;;;3.97;;
13607;SDS011;6875;50.852;5.672;2023-02-28T05:51:26;7.83;;;5.10;;
13607;SDS011;6875;50.852;5.672;2023-02-28T05:53:52;5.60;;;3.60;;
13607;SDS011;6875;50.852;5.672;2023-02-28T05:56:19;5.27;;;3.53;;
13607;SDS011;6875;50.852;5.672;2023-02-28T05:58:45;6.83;;;3.47;;
13607;SDS011;6875;50.852;5.672;2023-02-28T06:01:24;6.47;;;3.57;;
13607;SDS011;6875;50.852;5.672;2023-02-28T06:03:56;5.07;;;3.23;;
13607;SDS011;6875;50.852;5.672;2023-02-28T06:06:25;7.27;;;3.20;;
13607;SDS011;6875;50.852;5.672;2023-02-28T06:08:52;5.20;;;3.13;;
13607;SDS011;6875;50.852;5.672;2023-02-28T06:11:19;5.33;;;3.13;;
13607;SDS011;6875;50.852;5.672;2023-02-28T06:13:46;4.73;;;2.90;;
13607;SDS011;6875;50.852;5.672;2023-02-28T06:16:12;6.93;;;3.13;;
13607;SDS011;6875;50.852;5.672;2023-02-28T06:18:39;5.03;;;2.70;;
13607;SDS011;6875;50.852;5.672;2023-02-28T06:21:05;4.87;;;2.80;;
13607;SDS011;6875;50.852;5.672;2023-02-28T06:23:35;7.67;;;2.80;;
13607;SDS011;6875;50.852;5.672;2023-02-28T06:26:01;4.93;;;2.90;;
13607;SDS011;6875;50.852;5.672;2023-02-28T06:28:28;5.67;;;3.10;;
13607;SDS011;6875;50.852;5.672;2023-02-28T06:30:55;5.40;;;2.80;;
13607;SDS011;6875;50.852;5.672;2023-02-28T06:33:21;6.03;;;2.90;;
13607;SDS011;6875;50.852;5.672;2023-02-28T06:35:50;5.43;;;2.83;;
13607;SDS011;6875;50.852;5.672;2023-02-28T06:38:17;5.87;;;2.93;;
13607;SDS011;6875;50.852;5.672;2023-02-28T06:40:48;4.20;;;2.80;;
13607;SDS011;6875;50.852;5.672;2023-02-28T06:43:19;7.27;;;3.20;;
13607;SDS011;6875;50.852;5.672;2023-02-28T06:45:45;4.53;;;2.77;;
13607;SDS011;6875;50.852;5.672;2023-02-28T06:48:12;8.27;;;3.33;;
13607;SDS011;6875;50.852;5.672;2023-02-28T06:50:39;4.27;;;2.67;;
13607;SDS011;6875;50.852;5.672;2023-02-28T06:53:05;4.90;;;3.70;;
13607;SDS011;6875;50.852;5.672;2023-02-28T06:55:32;6.37;;;3.60;;
13607;SDS011;6875;50.852;5.672;2023-02-28T06:58:00;4.50;;;2.83;;
13607;SDS011;6875;50.852;5.672;2023-02-28T07:00:26;6.13;;;3.20;;
13607;SDS011;6875;50.852;5.672;2023-02-28T07:02:53;3.03;;;2.67;;
13607;SDS011;6875;50.852;5.672;2023-02-28T07:05:20;3.97;;;2.80;;
13607;SDS011;6875;50.852;5.672;2023-02-28T07:07:47;4.17;;;2.63;;
13607;SDS011;6875;50.852;5.672;2023-02-28T07:10:13;5.33;;;3.40;;
13607;SDS011;6875;50.852;5.672;2023-02-28T07:12:41;5.47;;;3.20;;
13607;SDS011;6875;50.852;5.672;2023-02-28T07:15:10;4.70;;;3.13;;
13607;SDS011;6875;50.852;5.672;2023-02-28T07:17:37;4.43;;;2.80;;
13607;SDS011;6875;50.852;5.672;2023-02-28T07:20:04;4.57;;;2.77;;
13607;SDS011;6875;50.852;5.672;2023-02-28T07:22:31;4.83;;;2.20;;
13607;SDS011;6875;50.852;5.672;2023-02-28T07:24:57;3.70;;;2.20;;
13607;SDS011;6875;50.852;5.672;2023-02-28T07:27:24;3.97;;;2.70;;
13607;SDS011;6875;50.852;5.672;2023-02-28T07:29:51;2.93;;;2.17;;
13607;SDS011;6875;50.852;5.672;2023-02-28T07:32:19;4.70;;;2.50;;
13607;SDS011;6875;50.852;5.672;2023-02-28T07:34:46;3.00;;;2.20;;
13607;SDS011;6875;50.852;5.672;2023-02-28T07:37:13;3.20;;;2.13;;
13607;SDS011;6875;50.852;5.672;2023-02-28T07:39:40;3.10;;;2.43;;
13607;SDS011;6875;50.852;5.672;2023-02-28T07:42:07;3.57;;;2.40;;
13607;SDS011;6875;50.852;5.672;2023-02-28T07:44:36;3.83;;;2.30;;
13607;SDS011;6875;50.852;5.672;2023-02-28T07:47:05;3.33;;;2.03;;
13607;SDS011;6875;50.852;5.672;2023-02-28T07:49:34;2.53;;;2.27;;
13607;SDS011;6875;50.852;5.672;2023-02-28T07:52:01;4.20;;;2.23;;
13607;SDS011;6875;50.852;5.672;2023-02-28T07:54:27;4.23;;;2.47;;
13607;SDS011;6875;50.852;5.672;2023-02-28T07:56:54;6.17;;;2.30;;
13607;SDS011;6875;50.852;5.672;2023-02-28T07:59:21;3.53;;;2.40;;
13607;SDS011;6875;50.852;5.672;2023-02-28T08:01:47;3.20;;;2.90;;
13607;SDS011;6875;50.852;5.672;2023-02-28T08:04:15;7.60;;;2.50;;
13607;SDS011;6875;50.852;5.672;2023-02-28T08:06:43;4.50;;;2.83;;
13607;SDS011;6875;50.852;5.672;2023-02-28T08:09:10;4.33;;;2.20;;
13607;SDS011;6875;50.852;5.672;2023-02-28T08:11:36;5.20;;;2.50;;
13607;SDS011;6875;50.852;5.672;2023-02-28T08:14:03;3.17;;;2.07;;
13607;SDS011;6875;50.852;5.672;2023-02-28T08:16:29;2.90;;;2.47;;
13607;SDS011;6875;50.852;5.672;2023-02-28T08:18:56;3.37;;;2.40;;
13607;SDS011;6875;50.852;5.672;2023-02-28T08:21:23;2.97;;;2.30;;
13607;SDS011;6875;50.852;5.672;2023-02-28T08:23:50;3.77;;;2.70;;
13607;SDS011;6875;50.852;5.672;2023-02-28T08:26:17;6.53;;;2.27;;
13607;SDS011;6875;50.852;5.672;2023-02-28T08:28:44;5.30;;;1.63;;
13607;SDS011;6875;50.852;5.672;2023-02-28T08:31:11;2.90;;;1.50;;
13607;SDS011;6875;50.852;5.672;2023-02-28T08:33:39;1.57;;;1.23;;
13607;SDS011;6875;50.852;5.672;2023-02-28T08:36:07;1.87;;;1.37;;
13607;SDS011;6875;50.852;5.672;2023-02-28T08:38:34;1.70;;;1.17;;
13607;SDS011;6875;50.852;5.672;2023-02-28T08:41:02;11.47;;;1.83;;
13607;SDS011;6875;50.852;5.672;2023-02-28T08:43:31;1.80;;;1.23;;
13607;SDS011;6875;50.852;5.672;2023-02-28T08:45:57;1.67;;;1.20;;
13607;SDS011;6875;50.852;5.672;2023-02-28T08:48:24;1.83;;;1.53;;
13607;SDS011;6875;50.852;5.672;2023-02-28T08:50:57;1.47;;;1.30;;
13607;SDS011;6875;50.852;5.672;2023-02-28T08:53:24;1.80;;;1.27;;
13607;SDS011;6875;50.852;5.672;2023-02-28T08:55:57;2.67;;;1.60;;
13607;SDS011;6875;50.852;5.672;2023-02-28T08:58:25;2.10;;;1.40;;
13607;SDS011;6875;50.852;5.672;2023-02-28T09:00:52;1.60;;;1.30;;
13607;SDS011;6875;50.852;5.672;2023-02-28T09:03:19;1.47;;;1.20;;
13607;SDS011;6875;50.852;5.672;2023-02-28T09:05:54;1.30;;;1.20;;
13607;SDS011;6875;50.852;5.672;2023-02-28T09:08:21;2.03;;;1.30;;
13607;SDS011;6875;50.852;5.672;2023-02-28T09:10:48;3.10;;;1.60;;
13607;SDS011;6875;50.852;5.672;2023-02-28T09:13:15;2.17;;;1.43;;
13607;SDS011;6875;50.852;5.672;2023-02-28T09:15:42;1.50;;;1.27;;
13607;SDS011;6875;50.852;5.672;2023-02-28T09:18:09;1.80;;;1.33;;
13607;SDS011;6875;50.852;5.672;2023-02-28T09:20:37;2.57;;;1.30;;
13607;SDS011;6875;50.852;5.672;2023-02-28T09:23:04;1.87;;;1.60;;
13607;SDS011;6875;50.852;5.672;2023-02-28T09:25:31;2.33;;;1.77;;
13607;SDS011;6875;50.852;5.672;2023-02-28T09:27:58;4.57;;;1.53;;
13607;SDS011;6875;50.852;5.672;2023-02-28T09:30:24;1.53;;;1.43;;
13607;SDS011;6875;50.852;5.672;2023-02-28T09:32:52;2.43;;;1.40;;
13607;SDS011;6875;50.852;5.672;2023-02-28T09:35:19;1.70;;;1.30;;
13607;SDS011;6875;50.852;5.672;2023-02-28T09:37:46;2.20;;;1.13;;
13607;SDS011;6875;50.852;5.672;2023-02-28T09:40:12;1.97;;;1.30;;
13607;SDS011;6875;50.852;5.672;2023-02-28T09:42:42;2.70;;;1.33;;
13607;SDS011;6875;50.852;5.672;2023-02-28T09:45:11;2.53;;;1.40;;
13607;SDS011;6875;50.852;5.672;2023-02-28T09:47:44;2.10;;;1.50;;
13607;SDS011;6875;50.852;5.672;2023-02-28T09:50:15;2.57;;;1.70;;
13607;SDS011;6875;50.852;5.672;2023-02-28T09:52:57;2.03;;;1.50;;
13607;SDS011;6875;50.852;5.672;2023-02-28T09:55:26;2.53;;;1.50;;
13607;SDS011;6875;50.852;5.672;2023-02-28T09:57:55;2.43;;;1.43;;
13607;SDS011;6875;50.852;5.672;2023-02-28T10:00:26;1.87;;;1.30;;
13607;SDS011;6875;50.852;5.672;2023-02-28T10:03:04;2.70;;;1.60;;
13607;SDS011;6875;50.852;5.672;2023-02-28T10:05:41;1.40;;;1.30;;
13607;SDS011;6875;50.852;5.672;2023-02-28T10:08:11;1.57;;;1.47;;
13607;SDS011;6875;50.852;5.672;2023-02-28T10:10:41;1.33;;;1.20;;
13607;SDS011;6875;50.852;5.672;2023-02-28T10:13:13;1.40;;;1.03;;
13607;SDS011;6875;50.852;5.672;2023-02-28T10:15:44;2.47;;;1.10;;
13607;SDS011;6875;50.852;5.672;2023-02-28T10:18:13;1.73;;;1.40;;
13607;SDS011;6875;50.852;5.672;2023-02-28T10:20:44;1.90;;;1.20;;
13607;SDS011;6875;50.852;5.672;2023-02-28T10:23:13;1.97;;;1.27;;
13607;SDS011;6875;50.852;5.672;2023-02-28T10:25:44;1.33;;;1.23;;
13607;SDS011;6875;50.852;5.672;2023-02-28T10:28:14;3.00;;;1.47;;
13607;SDS011;6875;50.852;5.672;2023-02-28T10:30:43;1.73;;;1.20;;
13607;SDS011;6875;50.852;5.672;2023-02-28T10:33:15;1.87;;;1.40;;
13607;SDS011;6875;50.852;5.672;2023-02-28T10:35:46;1.30;;;1.20;;
13607;SDS011;6875;50.852;5.672;2023-02-28T10:38:15;2.20;;;1.17;;
13607;SDS011;6875;50.852;5.672;2023-02-28T10:40:43;1.50;;;1.20;;
13607;SDS011;6875;50.852;5.672;2023-02-28T10:43:22;1.63;;;1.27;;
13607;SDS011;6875;50.852;5.672;2023-02-28T10:45:53;1.70;;;1.20;;
13607;SDS011;6875;50.852;5.672;2023-02-28T10:48:36;3.07;;;1.43;;
13607;SDS011;6875;50.852;5.672;2023-02-28T10:51:05;2.33;;;1.57;;
13607;SDS011;6875;50.852;5.672;2023-02-28T10:53:33;1.43;;;1.10;;
13607;SDS011;6875;50.852;5.672;2023-02-28T10:56:03;1.90;;;1.50;;
13607;SDS011;6875;50.852;5.672;2023-02-28T10:58:42;1.93;;;1.60;;
13607;SDS011;6875;50.852;5.672;2023-02-28T11:01:13;3.43;;;1.40;;
13607;SDS011;6875;50.852;5.672;2023-02-28T11:03:41;1.37;;;1.27;;
13607;SDS011;6875;50.852;5.672;2023-02-28T11:06:13;1.83;;;1.43;;
13607;SDS011;6875;50.852;5.672;2023-02-28T11:08:45;1.70;;;1.30;;
13607;SDS011;6875;50.852;5.672;2023-02-28T11:11:14;1.23;;;1.13;;
13607;SDS011;6875;50.852;5.672;2023-02-28T11:13:42;1.77;;;1.57;;
13607;SDS011;6875;50.852;5.672;2023-02-28T11:16:10;1.73;;;1.30;;
13607;SDS011;6875;50.852;5.672;2023-02-28T11:18:40;1.30;;;1.20;;
13607;SDS011;6875;50.852;5.672;2023-02-28T11:21:11;1.47;;;1.33;;
13607;SDS011;6875;50.852;5.672;2023-02-28T11:23:42;1.73;;;1.30;;
13607;SDS011;6875;50.852;5.672;2023-02-28T11:26:10;2.60;;;1.30;;
13607;SDS011;6875;50.852;5.672;2023-02-28T11:28:37;1.43;;;1.30;;
13607;SDS011;6875;50.852;5.672;2023-02-28T11:31:08;2.03;;;1.40;;
13607;SDS011;6875;50.852;5.672;2023-02-28T11:33:42;2.07;;;1.53;;
13607;SDS011;6875;50.852;5.672;2023-02-28T11:36:12;1.53;;;1.20;;
13607;SDS011;6875;50.852;5.672;2023-02-28T11:38:40;1.43;;;1.30;;
13607;SDS011;6875;50.852;5.672;2023-02-28T11:46:56;1.53;;;1.23;;
13607;SDS011;6875;50.852;5.672;2023-02-28T11:49:30;1.60;;;1.40;;
13607;SDS011;6875;50.852;5.672;2023-02-28T11:52:04;1.50;;;1.30;;
13607;SDS011;6875;50.852;5.672;2023-02-28T11:54:48;1.80;;;1.40;;
13607;SDS011;6875;50.852;5.672;2023-02-28T11:57:24;1.47;;;1.30;;
13607;SDS011;6875;50.852;5.672;2023-02-28T12:00:00;3.37;;;1.47;;
13607;SDS011;6875;50.852;5.672;2023-02-28T12:02:30;2.20;;;1.20;;
13607;SDS011;6875;50.852;5.672;2023-02-28T12:05:05;1.40;;;1.30;;
13607;SDS011;6875;50.852;5.672;2023-02-28T12:07:47;1.83;;;1.20;;
13607;SDS011;6875;50.852;5.672;2023-02-28T12:10:21;2.43;;;1.47;;
13607;SDS011;6875;50.852;5.672;2023-02-28T12:12:54;3.70;;;1.83;;
13607;SDS011;6875;50.852;5.672;2023-02-28T12:18:36;1.83;;;1.57;;
13607;SDS011;6875;50.852;5.672;2023-02-28T12:21:13;4.10;;;1.63;;
13607;SDS011;6875;50.852;5.672;2023-02-28T12:23:49;1.60;;;1.40;;
13607;SDS011;6875;50.852;5.672;2023-02-28T12:26:36;2.00;;;1.53;;
13607;SDS011;6875;50.852;5.672;2023-02-28T12:29:07;1.30;;;1.20;;
13607;SDS011;6875;50.852;5.672;2023-02-28T12:31:40;2.67;;;1.50;;
13607;SDS011;6875;50.852;5.672;2023-02-28T12:34:10;4.80;;;1.50;;
13607;SDS011;6875;50.852;5.672;2023-02-28T12:36:39;2.00;;;1.60;;
13607;SDS011;6875;50.852;5.672;2023-02-28T12:39:08;1.83;;;1.30;;
13607;SDS011;6875;50.852;5.672;2023-02-28T12:41:41;2.40;;;1.43;;
13607;SDS011;6875;50.852;5.672;2023-02-28T12:44:11;2.90;;;1.50;;
13607;SDS011;6875;50.852;5.672;2023-02-28T12:46:41;4.00;;;2.10;;
13607;SDS011;6875;50.852;5.672;2023-02-28T12:49:09;1.83;;;1.73;;
13607;SDS011;6875;50.852;5.672;2023-02-28T12:51:37;1.83;;;1.70;;
13607;SDS011;6875;50.852;5.672;2023-02-28T12:54:06;2.03;;;1.83;;
13607;SDS011;6875;50.852;5.672;2023-02-28T12:56:40;3.50;;;1.80;;
13607;SDS011;6875;50.852;5.672;2023-02-28T12:59:11;2.10;;;1.93;;
13607;SDS011;6875;50.852;5.672;2023-02-28T13:04:47;1.90;;;1.70;;
13607;SDS011;6875;50.852;5.672;2023-02-28T13:07:37;1.97;;;1.77;;
13607;SDS011;6875;50.852;5.672;2023-02-28T13:10:17;5.73;;;1.87;;
13607;SDS011;6875;50.852;5.672;2023-02-28T13:12:47;1.87;;;1.60;;
13607;SDS011;6875;50.852;5.672;2023-02-28T13:15:16;1.57;;;1.47;;
13607;SDS011;6875;50.852;5.672;2023-02-28T13:17:48;2.77;;;1.60;;
13607;SDS011;6875;50.852;5.672;2023-02-28T13:20:16;2.70;;;1.70;;
13607;SDS011;6875;50.852;5.672;2023-02-28T13:22:44;2.33;;;1.67;;
13607;SDS011;6875;50.852;5.672;2023-02-28T13:38:22;3.57;;;1.50;;
13607;SDS011;6875;50.852;5.672;2023-02-28T13:40:50;4.63;;;1.83;;
13607;SDS011;6875;50.852;5.672;2023-02-28T13:43:17;2.77;;;1.93;;
13607;SDS011;6875;50.852;5.672;2023-02-28T13:46:05;2.50;;;1.70;;
13607;SDS011;6875;50.852;5.672;2023-02-28T13:48:34;2.33;;;1.77;;
13607;SDS011;6875;50.852;5.672;2023-02-28T13:51:05;2.27;;;2.00;;
13607;SDS011;6875;50.852;5.672;2023-02-28T13:54:05;9.40;;;2.33;;
13607;SDS011;6875;50.852;5.672;2023-02-28T13:56:41;2.63;;;2.13;;
13607;SDS011;6875;50.852;5.672;2023-02-28T13:59:16;2.47;;;1.93;;
13607;SDS011;6875;50.852;5.672;2023-02-28T14:01:49;2.07;;;1.80;;
13607;SDS011;6875;50.852;5.672;2023-02-28T14:04:37;3.17;;;2.00;;
13607;SDS011;6875;50.852;5.672;2023-02-28T14:07:16;3.07;;;2.20;;
13607;SDS011;6875;50.852;5.672;2023-02-28T14:09:46;2.43;;;2.07;;
13607;SDS011;6875;50.852;5.672;2023-02-28T14:15:25;2.97;;;2.20;;
13607;SDS011;6875;50.852;5.672;2023-02-28T14:17:54;4.73;;;2.10;;
13607;SDS011;6875;50.852;5.672;2023-02-28T14:20:21;2.43;;;1.90;;
13607;SDS011;6875;50.852;5.672;2023-02-28T14:22:51;1.97;;;1.77;;
13607;SDS011;6875;50.852;5.672;2023-02-28T14:25:25;4.63;;;1.87;;
13607;SDS011;6875;50.852;5.672;2023-02-28T14:27:58;3.03;;;1.87;;
13607;SDS011;6875;50.852;5.672;2023-02-28T14:33:25;3.17;;;2.20;;
13607;SDS011;6875;50.852;5.672;2023-02-28T14:36:00;2.17;;;1.97;;
13607;SDS011;6875;50.852;5.672;2023-02-28T14:38:30;2.20;;;2.00;;
13607;SDS011;6875;50.852;5.672;2023-02-28T14:41:00;5.80;;;2.23;;
13607;SDS011;6875;50.852;5.672;2023-02-28T14:43:29;4.20;;;2.17;;
13607;SDS011;6875;50.852;5.672;2023-02-28T14:45:56;3.70;;;2.00;;
13607;SDS011;6875;50.852;5.672;2023-02-28T14:48:24;2.80;;;2.10;;
13607;SDS011;6875;50.852;5.672;2023-02-28T14:50:52;2.80;;;2.07;;
13607;SDS011;6875;50.852;5.672;2023-02-28T14:53:21;3.80;;;1.70;;
13607;SDS011;6875;50.852;5.672;2023-02-28T14:55:48;2.93;;;1.87;;
13607;SDS011;6875;50.852;5.672;2023-02-28T14:58:22;2.17;;;1.87;;
13607;SDS011;6875;50.852;5.672;2023-02-28T15:00:51;3.33;;;1.83;;
13607;SDS011;6875;50.852;5.672;2023-02-28T15:03:21;3.30;;;2.17;;
13607;SDS011;6875;50.852;5.672;2023-02-28T15:05:52;2.27;;;1.90;;
13607;SDS011;6875;50.852;5.672;2023-02-28T15:08:20;4.90;;;3.30;;
13607;SDS011;6875;50.852;5.672;2023-02-28T15:10:50;5.80;;;2.87;;
13607;SDS011;6875;50.852;5.672;2023-02-28T15:13:18;3.93;;;2.00;;
13607;SDS011;6875;50.852;5.672;2023-02-28T15:15:47;3.70;;;1.80;;
13607;SDS011;6875;50.852;5.672;2023-02-28T15:18:21;2.00;;;1.70;;
13607;SDS011;6875;50.852;5.672;2023-02-28T15:20:52;2.37;;;1.73;;
13607;SDS011;6875;50.852;5.672;2023-02-28T15:23:19;4.27;;;1.77;;
13607;SDS011;6875;50.852;5.672;2023-02-28T15:25:47;2.13;;;1.87;;
13607;SDS011;6875;50.852;5.672;2023-02-28T15:28:15;4.60;;;2.00;;
13607;SDS011;6875;50.852;5.672;2023-02-28T15:30:52;2.03;;;1.70;;
13607;SDS011;6875;50.852;5.672;2023-02-28T15:33:21;2.77;;;1.70;;
13607;SDS011;6875;50.852;5.672;2023-02-28T15:35:48;2.87;;;2.10;;
13607;SDS011;6875;50.852;5.672;2023-02-28T15:38:17;2.60;;;2.03;;
13607;SDS011;6875;50.852;5.672;2023-02-28T15:40:45;2.57;;;1.90;;
13607;SDS011;6875;50.852;5.672;2023-02-28T15:43:18;2.80;;;1.83;;
13607;SDS011;6875;50.852;5.672;2023-02-28T15:45:50;2.70;;;1.97;;
13607;SDS011;6875;50.852;5.672;2023-02-28T15:48:19;3.20;;;1.80;;
13607;SDS011;6875;50.852;5.672;2023-02-28T15:50:49;2.33;;;1.50;;
13607;SDS011;6875;50.852;5.672;2023-02-28T15:53:17;4.73;;;1.93;;
13607;SDS011;6875;50.852;5.672;2023-02-28T15:55:47;3.37;;;1.83;;
13607;SDS011;6875;50.852;5.672;2023-02-28T15:58:19;1.70;;;1.60;;
13607;SDS011;6875;50.852;5.672;2023-02-28T16:00:59;3.83;;;1.80;;